Historyczne dane pomiarowe

Dodano dane terminowe – wersja testowa.

Dane z okresu 1951-2019

Wersja bazy: 1.34 [2019-03-16, lista zmian], aktualizacja planowana na 2019-04-15

Dane meteo z obszaru Polski uzyskane na podstawie danych udostępnionych przez Instytut Meteorologii i Gospodarki Wodnej – Państwowy Instytut Badawczy.

 

Wybierz Datę:    

       

TemperaturaWilgotnośćWiatrCiśnienieOpadyŚniegCzas trwania zjawisk
 Stacja t tx tn tng RH VA  wxwx mslp ppp RRR   cm mm wxwxwxwxwxwxwx
1987-08-14 13.3 19.9 8.3 5.2 89.8- 7.3 1.7---- 5.7------------
1987-08-13 14.0 20.4 7.8 4.7 76.5- 6.0 0.7---- 0.0------------
1987-08-12 13.6 19.7 6.0 2.4 75.5- 3.0 1.3---- 0.0------------
1987-08-11 13.4 18.2 9.3 5.0 78.3- 2.7 4.3---- 0.0------------
1987-08-10 14.1 17.4 11.4 8.5 88.3- 7.7 1.7---- 2.8------------
1987-08-09 16.6 24.2 8.5 5.5 79.8- 4.3 2.0---- 2.9------------
1987-08-08 15.5 21.5 6.5 2.9 74.8- 3.7 3.0---- 0.0------------
1987-08-07 10.3 16.2 4.8 1.0 91.0- 6.7 1.7---- 1.2------------
1987-08-06 11.5 15.7 8.8 4.9 82.8- 5.7 3.0---- 8.4------------
1987-08-05 12.4 18.0 7.0 2.9 81.8- 5.0 2.3---- 0.6------------
1987-08-04 14.7 18.7 13.2 10.0 80.5- 6.0 4.3---- 0.0------------
1987-08-03 15.0 21.0 9.3 5.3 78.3- 5.0 2.7---- 5.9------------
1987-08-02 14.7 19.6 11.0 7.9 79.5- 5.7 4.0---- 3.0------------
1987-08-01 15.5 19.4 13.0 10.4 90.3- 7.7 3.0---- 9.6------------
1987-07-31 16.1 22.8 15.5 12.8 82.3- 7.7 4.3---- 0.2------------
1987-07-30 18.3 25.0 8.3 4.8 74.3- 3.3 1.3---- 6.5------------
1987-07-29 15.1 20.0 10.0 7.1 78.0- 6.7 2.3---- 0.0------------
1987-07-28 13.1 16.0 12.2 9.3 84.0- 8.0 3.3---- 1.4------------
1987-07-27 12.4 17.8 8.0 4.7 79.3- 7.3 4.0---- 2.0------------
1987-07-26 12.8 17.2 11.2 10.8 88.8- 8.0 1.3---- 3.6------------
1987-07-25 17.5 22.5 14.7 10.9 85.0- 7.3 2.0---- 3.8------------
1987-07-24 20.5 24.9 14.6 12.3 81.5- 3.7 1.3---- 0.4------------
1987-07-23 20.0 27.3 12.4 8.8 81.0- 3.0 1.0---- 22.4------------
1987-07-22 19.3 25.0 13.0 9.2 78.8- 1.3 0.3---- 0.0------------
1987-07-21 17.3 24.4 11.3 8.1 85.0- 6.3 2.0---- 0.5------------
1987-07-20 17.8 23.0 15.2 13.9 88.8- 7.3 0.7---- 0.0------------
1987-07-19 18.5 23.3 16.5 15.0 88.0- 8.0 3.3---- 14.8------------
1987-07-18 21.7 26.8 16.7 11.9 83.0- 1.0 3.7---- 0.2------------
1987-07-17 23.5 30.0 17.2 13.2 77.0- 4.3 2.7---- 0.0------------
1987-07-16 21.1 28.3 12.5 8.4 75.0- 2.7 2.0---- 0.0------------
1987-07-15 18.0 25.0 9.1 4.7 70.0- 0.0 2.3---- 0.0------------
1987-07-14 16.4 21.4 8.8 4.5 72.3- 1.3 0.3---- 0.0------------
1987-07-13 17.6 21.4 12.0 7.7 76.0- 4.3 3.3---- 0.0------------
1987-07-12 19.9 28.3 13.5 9.9 79.3- 5.7 4.0---- 4.4------------
1987-07-11 17.8 24.7 7.9 4.5 71.5- 3.3 3.0---- 0.0------------
1987-07-10 14.8 19.3 10.2 5.8 73.0- 4.3 3.0---- 0.0------------
1987-07-09 15.9 22.3 14.4 13.7 93.8- 7.7 2.3---- 2.0------------
1987-07-08 20.3 27.6 12.9 9.1 80.3- 4.7 1.7---- 6.6------------
1987-07-07 19.5 26.9 10.7 6.5 70.5- 0.0 3.0---- 0.0------------
1987-07-06 17.6 24.3 9.4 6.2 74.5- 1.7 0.3---- 0.0------------
1987-07-05 16.4 21.1 11.2 8.3 76.0- 2.0 2.3---- 0.0------------
1987-07-04 17.0 22.4 12.3 8.7 82.5- 7.3 1.7---- 0.0------------
1987-07-03 18.7 23.7 13.0 10.0 79.8- 4.7 0.3---- 0.0------------
1987-07-02 18.0 20.6 15.0 13.2 87.3- 7.0 1.0---- 3.5------------
1987-07-01 22.9 31.6 16.8 13.2 81.8- 2.7 1.3---- 13.2------------
1987-06-30 23.8 30.0 15.5 12.4 79.5- 0.0 1.0---- 0.0------------
1987-06-29 22.0 27.0 16.3 12.3 80.5- 0.7 0.3---- 0.0------------
1987-06-28 19.4 24.6 11.0 8.7 79.5- 3.0 2.0---- 0.0------------
1987-06-27 16.5 19.7 14.4 11.7 91.8- 6.7 1.0---- 0.7------------
1987-06-26 15.8 24.2 9.0 5.7 84.0- 4.7 1.7---- 31.6------------
1987-06-25 13.7 17.0 11.7 9.7 88.0- 6.7 1.3---- 2.3------------
1987-06-24 16.1 21.3 11.2 7.8 79.8- 4.7 2.0---- 7.6------------
1987-06-23 15.2 20.2 9.3 6.2 78.8- 6.0 1.7---- 0.0------------
1987-06-22 13.6 15.6 11.9 10.7 91.0- 8.0 3.0---- 0.0------------
1987-06-21 16.1 23.3 8.5 5.4 84.8- 3.7 3.0---- 5.5------------
1987-06-20 15.4 20.9 9.3 5.0 75.8- 6.3 7.7---- 0.2------------
1987-06-19 12.6 18.1 7.5 4.8 79.0- 6.7 1.3---- 0.0------------
1987-06-18 10.8 14.9 6.5 2.5 85.3- 7.3 3.3---- 0.7------------
1987-06-17 12.3 16.7 8.2 4.5 76.8- 5.7 3.0---- 0.4------------
1987-06-16 12.5 23.0 9.0 8.2 86.8- 8.0 5.0---- 1.1------------
540.3 ms

 

Źródłem pochodzenia danych jest Instytut Meteorologii i Gospodarki Wodnej – Państwowy Instytut Badawczy. Dane Instytutu Meteorologii i Gospodarki Wodnej – Państwowego Instytutu Badawczego zostały przetworzone.

Dane źródłowe można odnaleźć na stronie https://dane.imgw.pl